createdAt,value
2019-03-19T00:00:04.245Z,0.20
2019-03-19T00:01:04.233Z,0.10
2019-03-19T00:02:04.228Z,0.10
2019-03-19T00:03:04.224Z,0.10
2019-03-19T00:04:04.206Z,0.30
2019-03-19T00:05:04.195Z,0.10
2019-03-19T00:06:04.239Z,0.10
2019-03-19T00:07:04.172Z,0.10
2019-03-19T00:08:04.196Z,0.20
2019-03-19T00:09:04.143Z,0.10
2019-03-19T00:10:04.131Z,0.10
2019-03-19T00:11:10.209Z,0.10
2019-03-19T00:12:04.107Z,0.20
2019-03-19T00:13:04.096Z,0.20
2019-03-19T00:14:04.121Z,0.20
2019-03-19T00:15:04.072Z,0.10
2019-03-19T00:16:04.085Z,0.20
2019-03-19T00:17:04.057Z,0.10
2019-03-19T00:18:04.046Z,0.20
2019-03-19T00:19:04.029Z,0.10
2019-03-19T00:20:04.028Z,0.10
2019-03-19T00:21:04.010Z,0.20
2019-03-19T00:22:03.998Z,0.10
2019-03-19T00:23:04.000Z,0.10
2019-03-19T00:24:03.976Z,0.20
2019-03-19T00:25:03.998Z,0.20
2019-03-19T00:26:03.949Z,0.10
2019-03-19T00:27:03.946Z,0.10
2019-03-19T00:28:03.930Z,0.20
2019-03-19T00:29:03.919Z,0.10
2019-03-19T00:30:03.906Z,0.20
2019-03-19T00:31:03.898Z,0.10
2019-03-19T00:32:03.879Z,0.20
2019-03-19T00:33:03.869Z,0.20
2019-03-19T00:34:03.855Z,0.10
2019-03-19T00:35:03.853Z,0.10
2019-03-19T00:36:03.849Z,0.20
2019-03-19T00:37:03.821Z,0.10
2019-03-19T00:38:03.819Z,0.10
2019-03-19T00:39:03.804Z,0.10
2019-03-19T00:40:03.790Z,0.20
2019-03-19T00:41:03.775Z,0.20
2019-03-19T00:42:03.773Z,0.20
2019-03-19T00:43:09.846Z,0.20
2019-03-19T00:44:03.739Z,0.10
2019-03-19T00:45:03.728Z,0.30
2019-03-19T00:46:03.797Z,0.20
2019-03-19T00:47:03.742Z,0.20
2019-03-19T00:48:03.700Z,0.10
2019-03-19T00:49:03.683Z,0.20
2019-03-19T00:50:03.673Z,0.20
2019-03-19T00:51:04.417Z,0.10
2019-03-19T00:52:03.646Z,0.20
2019-03-19T00:53:03.675Z,0.20
2019-03-19T00:54:03.624Z,0.20
2019-03-19T00:55:03.622Z,0.20
2019-03-19T00:56:03.623Z,0.20
2019-03-19T00:57:03.595Z,0.10
2019-03-19T00:58:03.582Z,0.20
2019-03-19T00:59:03.579Z,0.20
2019-03-19T01:00:03.562Z,0.20
2019-03-19T01:01:03.549Z,0.10
2019-03-19T01:02:03.543Z,0.10
2019-03-19T01:03:03.526Z,0.20
2019-03-19T01:04:03.546Z,0.10
2019-03-19T01:05:03.506Z,0.10
2019-03-19T01:06:03.598Z,0.20
2019-03-19T01:07:03.475Z,0.30
2019-03-19T01:08:03.463Z,0.20
2019-03-19T01:09:03.456Z,0.20
2019-03-19T01:10:03.456Z,0.10
2019-03-19T01:11:03.433Z,0.20
2019-03-19T01:12:03.421Z,0.20
2019-03-19T01:13:03.409Z,0.10
2019-03-19T01:14:03.436Z,0.10
2019-03-19T01:15:09.487Z,0.10
2019-03-19T01:16:03.374Z,0.10
2019-03-19T01:17:03.360Z,0.10
2019-03-19T01:18:03.355Z,0.30
2019-03-19T01:19:03.341Z,0.10
2019-03-19T01:20:03.332Z,0.30
2019-03-19T01:21:03.316Z,0.20
2019-03-19T01:22:03.309Z,0.20
2019-03-19T01:23:03.293Z,0.20
2019-03-19T01:24:03.282Z,0.10
2019-03-19T01:25:03.305Z,0.20
2019-03-19T01:26:03.265Z,0.30
2019-03-19T01:27:03.248Z,0.10
2019-03-19T01:28:03.239Z,0.10
2019-03-19T01:29:03.224Z,0.10
2019-03-19T01:30:03.213Z,0.10
2019-03-19T01:31:03.243Z,0.20
2019-03-19T01:32:03.189Z,0.10
2019-03-19T01:33:03.181Z,0.20
2019-03-19T01:34:03.163Z,0.20
2019-03-19T01:35:03.158Z,0.10
2019-03-19T01:36:03.141Z,0.10
2019-03-19T01:37:03.137Z,0.20
2019-03-19T01:38:03.118Z,0.20
2019-03-19T01:39:03.117Z,0.20
2019-03-19T01:40:03.103Z,0.20
2019-03-19T01:41:03.131Z,0.10
2019-03-19T01:42:03.073Z,0.20
2019-03-19T01:43:03.066Z,0.10
2019-03-19T01:44:03.052Z,0.10
2019-03-19T01:45:03.040Z,0.10
2019-03-19T01:46:03.103Z,0.10
2019-03-19T01:47:09.493Z,0.20
2019-03-19T01:48:03.006Z,0.10
2019-03-19T01:49:03.019Z,0.20
2019-03-19T01:50:02.984Z,0.20
2019-03-19T01:51:02.981Z,0.10
2019-03-19T01:52:02.959Z,0.20
2019-03-19T01:53:02.992Z,0.10
2019-03-19T01:54:02.943Z,0.20
2019-03-19T01:55:02.923Z,0.10
2019-03-19T01:56:05.545Z,0.20
2019-03-19T01:57:02.900Z,0.10
2019-03-19T01:58:02.890Z,0.20
2019-03-19T01:59:02.898Z,0.10
2019-03-19T02:00:02.868Z,0.10
2019-03-19T02:01:02.862Z,0.10
2019-03-19T02:02:02.848Z,0.10
2019-03-19T02:03:02.839Z,0.10
2019-03-19T02:04:02.820Z,0.20
2019-03-19T02:05:02.822Z,0.10
2019-03-19T02:06:02.799Z,0.10
2019-03-19T02:07:02.790Z,0.10
2019-03-19T02:08:02.778Z,0.20
2019-03-19T02:09:02.796Z,0.10
2019-03-19T02:10:02.754Z,0.30
2019-03-19T02:11:02.737Z,0.20
2019-03-19T02:12:02.729Z,0.10
2019-03-19T02:13:02.729Z,0.20
2019-03-19T02:14:02.706Z,0.10
2019-03-19T02:15:02.699Z,0.20
2019-03-19T02:16:02.688Z,0.10
2019-03-19T02:17:02.673Z,0.10
2019-03-19T02:18:02.668Z,0.20
2019-03-19T02:19:08.992Z,0.10
2019-03-19T02:20:02.682Z,0.20
2019-03-19T02:21:02.622Z,0.10
2019-03-19T02:22:02.610Z,0.00
2019-03-19T02:23:04.592Z,0.10
2019-03-19T02:24:02.591Z,0.20
2019-03-19T02:25:02.582Z,0.10
2019-03-19T02:26:02.605Z,0.20
2019-03-19T02:27:02.556Z,0.30
2019-03-19T02:28:02.548Z,0.30
2019-03-19T02:29:02.537Z,0.20
2019-03-19T02:30:02.526Z,0.10
2019-03-19T02:31:02.507Z,0.10
2019-03-19T02:32:02.534Z,0.10
2019-03-19T02:33:02.490Z,0.10
2019-03-19T02:34:02.480Z,0.20
2019-03-19T02:35:02.466Z,0.10
2019-03-19T02:36:02.466Z,0.20
2019-03-19T02:37:02.438Z,0.10
2019-03-19T02:38:02.444Z,0.10
2019-03-19T02:39:02.418Z,0.10
2019-03-19T02:40:02.405Z,0.10
2019-03-19T02:41:02.395Z,0.10
2019-03-19T02:42:02.389Z,0.10
2019-03-19T02:43:02.411Z,0.10
2019-03-19T02:44:02.363Z,0.10
2019-03-19T02:45:02.350Z,0.10
2019-03-19T02:46:02.337Z,0.20
2019-03-19T02:47:02.324Z,0.00
2019-03-19T02:48:02.326Z,0.10
2019-03-19T02:49:02.320Z,0.10
2019-03-19T02:50:02.294Z,0.10
2019-03-19T02:51:08.419Z,0.20
2019-03-19T02:52:02.277Z,0.10
2019-03-19T02:53:02.257Z,0.20
2019-03-19T02:54:02.253Z,0.10
2019-03-19T02:55:02.239Z,0.20
2019-03-19T02:56:02.220Z,0.20
2019-03-19T02:57:02.216Z,0.10
2019-03-19T02:58:02.202Z,0.10
2019-03-19T02:59:02.186Z,0.10
2019-03-19T03:00:02.180Z,0.10
2019-03-19T03:01:02.201Z,0.20
2019-03-19T03:02:02.152Z,0.10
2019-03-19T03:03:02.138Z,0.30
2019-03-19T03:04:02.127Z,0.10
2019-03-19T03:05:02.124Z,0.10
2019-03-19T03:06:02.117Z,0.10
2019-03-19T03:07:02.112Z,0.20
2019-03-19T03:08:02.089Z,0.20
2019-03-19T03:09:02.081Z,0.10
2019-03-19T03:10:02.097Z,0.10
2019-03-19T03:11:02.053Z,0.10
2019-03-19T03:12:02.044Z,0.10
2019-03-19T03:13:02.029Z,0.10
2019-03-19T03:14:02.019Z,0.10
2019-03-19T03:15:02.007Z,0.10
2019-03-19T03:16:01.989Z,0.20
2019-03-19T03:17:02.016Z,0.10
2019-03-19T03:18:01.972Z,0.10
2019-03-19T03:19:01.954Z,0.20
2019-03-19T03:20:01.951Z,0.20
2019-03-19T03:21:01.932Z,0.20
2019-03-19T03:22:01.928Z,0.10
2019-03-19T03:23:08.065Z,0.20
2019-03-19T03:24:01.908Z,0.20
2019-03-19T03:25:01.903Z,0.30
2019-03-19T03:26:01.889Z,0.10
2019-03-19T03:27:02.551Z,0.20
2019-03-19T03:28:01.867Z,0.10
2019-03-19T03:29:01.854Z,0.30
2019-03-19T03:30:01.857Z,0.20
2019-03-19T03:31:01.825Z,0.20
2019-03-19T03:32:01.805Z,0.20
2019-03-19T03:33:01.800Z,0.20
2019-03-19T03:34:01.841Z,0.30
2019-03-19T03:35:01.856Z,0.10
2019-03-19T03:36:01.777Z,0.30
2019-03-19T03:37:01.748Z,0.30
2019-03-19T03:38:01.743Z,0.30
2019-03-19T03:39:01.732Z,0.20
2019-03-19T03:40:01.749Z,0.20
2019-03-19T03:41:01.707Z,0.30
2019-03-19T03:42:01.696Z,0.20
2019-03-19T03:43:01.695Z,0.20
2019-03-19T03:44:01.674Z,0.20
2019-03-19T03:45:01.676Z,0.30
2019-03-19T03:46:01.665Z,0.20
2019-03-19T03:47:01.639Z,0.20
2019-03-19T03:48:01.623Z,0.20
2019-03-19T03:49:01.638Z,0.20
2019-03-19T03:50:01.601Z,0.20
2019-03-19T03:51:01.599Z,0.20
2019-03-19T03:52:01.594Z,0.40
2019-03-19T03:53:01.571Z,0.20
2019-03-19T03:54:01.558Z,0.20
2019-03-19T03:55:07.641Z,0.20
2019-03-19T03:56:01.546Z,0.30
2019-03-19T03:57:02.885Z,0.30
2019-03-19T03:58:01.521Z,0.30
2019-03-19T03:59:01.628Z,0.30
2019-03-19T04:00:01.485Z,0.30
2019-03-19T04:01:01.472Z,0.30
2019-03-19T04:02:01.479Z,0.30
2019-03-19T04:03:01.454Z,0.30
2019-03-19T04:04:01.436Z,0.40
2019-03-19T04:05:01.427Z,0.30
2019-03-19T04:06:01.414Z,0.30
2019-03-19T04:07:01.408Z,0.30
2019-03-19T04:08:01.419Z,0.30
2019-03-19T04:09:01.384Z,0.30
2019-03-19T04:10:01.468Z,0.30
2019-03-19T04:11:01.364Z,0.20
2019-03-19T04:12:01.344Z,0.20
2019-03-19T04:13:01.349Z,0.20
2019-03-19T04:14:01.356Z,0.30
2019-03-19T04:15:01.313Z,0.40
2019-03-19T04:16:01.302Z,0.30
2019-03-19T04:17:01.289Z,0.40
2019-03-19T04:18:01.287Z,0.40
2019-03-19T04:19:01.268Z,0.20
2019-03-19T04:20:01.274Z,0.20
2019-03-19T04:21:01.246Z,0.20
2019-03-19T04:22:01.232Z,0.30
2019-03-19T04:23:01.219Z,0.30
2019-03-19T04:24:01.216Z,0.60
2019-03-19T04:25:01.213Z,0.30
2019-03-19T04:26:01.202Z,0.30
2019-03-19T04:27:15.840Z,0.20
2019-03-19T04:28:02.159Z,0.30
2019-03-19T04:29:01.156Z,0.40
2019-03-19T04:30:01.151Z,0.20
2019-03-19T04:31:01.138Z,0.30
2019-03-19T04:32:01.115Z,0.30
2019-03-19T04:33:01.112Z,0.30
2019-03-19T04:34:01.091Z,0.30
2019-03-19T04:35:01.091Z,0.30
2019-03-19T04:36:01.108Z,0.30
2019-03-19T04:37:01.058Z,0.30
2019-03-19T04:38:01.047Z,0.20
2019-03-19T04:39:01.033Z,0.20
2019-03-19T04:40:01.023Z,0.20
2019-03-19T04:41:01.011Z,0.30
2019-03-19T04:42:01.012Z,0.30
2019-03-19T04:43:00.990Z,0.10
2019-03-19T04:44:00.979Z,0.20
2019-03-19T04:45:00.966Z,0.30
2019-03-19T04:46:00.952Z,0.30
2019-03-19T04:47:00.980Z,0.20
2019-03-19T04:48:03.424Z,0.30
2019-03-19T04:49:00.917Z,0.30
2019-03-19T04:50:00.908Z,0.20
2019-03-19T04:51:00.900Z,0.30
2019-03-19T04:52:00.885Z,0.20
2019-03-19T04:53:00.881Z,0.20
2019-03-19T04:54:00.863Z,0.20
2019-03-19T04:55:00.849Z,0.30
2019-03-19T04:56:00.840Z,0.30
2019-03-19T04:57:00.828Z,0.30
2019-03-19T04:58:00.850Z,0.10
2019-03-19T04:59:08.057Z,0.30
2019-03-19T05:00:00.790Z,0.30
2019-03-19T05:01:00.780Z,0.10
2019-03-19T05:02:00.805Z,0.10
2019-03-19T05:03:00.755Z,0.30
2019-03-19T05:04:00.784Z,0.20
2019-03-19T05:05:00.732Z,0.20
2019-03-19T05:06:00.718Z,0.20
2019-03-19T05:07:00.708Z,0.30
2019-03-19T05:08:00.701Z,0.30
2019-03-19T05:09:00.684Z,0.10
2019-03-19T05:10:00.702Z,0.20
2019-03-19T05:11:00.660Z,0.20
2019-03-19T05:12:00.651Z,0.10
2019-03-19T05:13:00.929Z,0.30
2019-03-19T05:14:00.626Z,0.20
2019-03-19T05:15:00.617Z,0.20
2019-03-19T05:16:00.639Z,0.10
2019-03-19T05:17:00.602Z,0.30
2019-03-19T05:18:00.586Z,0.20
2019-03-19T05:19:00.573Z,0.20
2019-03-19T05:20:00.563Z,0.10
2019-03-19T05:21:00.554Z,0.20
2019-03-19T05:22:00.544Z,0.10
2019-03-19T05:23:00.524Z,0.20
2019-03-19T05:24:00.513Z,0.10
2019-03-19T05:25:00.510Z,0.20
2019-03-19T05:26:00.504Z,0.30
2019-03-19T05:27:00.486Z,0.20
2019-03-19T05:28:00.470Z,0.30
2019-03-19T05:29:00.463Z,0.30
2019-03-19T05:30:00.449Z,0.30
2019-03-19T05:31:06.591Z,0.20
2019-03-19T05:32:00.425Z,0.20
2019-03-19T05:33:00.416Z,0.30
2019-03-19T05:34:00.399Z,0.20
2019-03-19T05:35:00.415Z,0.20
2019-03-19T05:36:00.379Z,0.30
2019-03-19T05:37:00.399Z,0.20
2019-03-19T05:38:00.356Z,0.30
2019-03-19T05:39:00.344Z,0.50
2019-03-19T05:40:00.346Z,0.40
2019-03-19T05:41:00.315Z,0.30
2019-03-19T05:42:00.305Z,0.30
2019-03-19T05:43:00.301Z,0.20
2019-03-19T05:44:00.288Z,0.30
2019-03-19T05:45:00.334Z,0.30
2019-03-19T05:46:00.261Z,0.40
2019-03-19T05:47:00.250Z,0.30
2019-03-19T05:48:00.263Z,0.40
2019-03-19T05:49:00.227Z,0.30
2019-03-19T05:50:00.403Z,0.30
2019-03-19T05:51:00.206Z,0.30
2019-03-19T05:52:00.195Z,0.40
2019-03-19T05:53:00.184Z,0.30
2019-03-19T05:54:00.211Z,0.30
2019-03-19T05:55:00.315Z,0.30
2019-03-19T05:56:00.151Z,0.30
2019-03-19T05:57:00.138Z,0.30
2019-03-19T05:58:00.123Z,0.20
2019-03-19T05:59:00.110Z,0.20
2019-03-19T06:00:00.173Z,0.40
2019-03-19T06:01:00.090Z,0.30
2019-03-19T06:02:00.083Z,0.40
2019-03-19T06:03:06.456Z,0.20
2019-03-19T06:04:00.062Z,0.40
2019-03-19T06:05:00.114Z,0.40
2019-03-19T06:06:00.034Z,0.30
2019-03-19T06:07:00.018Z,0.30
2019-03-19T06:08:00.016Z,0.50
2019-03-19T06:09:00.002Z,0.30
2019-03-19T06:09:59.987Z,0.40
2019-03-19T06:11:00.014Z,0.30
2019-03-19T06:11:59.963Z,0.30
2019-03-19T06:12:59.952Z,0.50
2019-03-19T06:13:59.942Z,0.40
2019-03-19T06:14:59.932Z,0.30
2019-03-19T06:15:59.919Z,0.30
2019-03-19T06:16:59.922Z,0.40
2019-03-19T06:17:59.893Z,0.30
2019-03-19T06:18:59.882Z,0.30
2019-03-19T06:19:59.875Z,0.40
2019-03-19T06:20:59.861Z,0.20
2019-03-19T06:21:59.856Z,0.30
2019-03-19T06:22:59.890Z,0.40
2019-03-19T06:23:59.826Z,0.30
2019-03-19T06:24:59.821Z,0.50
2019-03-19T06:25:59.807Z,0.40
2019-03-19T06:26:59.791Z,0.50
2019-03-19T06:28:00.981Z,0.30
2019-03-19T06:28:59.810Z,0.30
2019-03-19T06:29:59.762Z,0.40
2019-03-19T06:30:59.743Z,0.20
2019-03-19T06:31:59.736Z,0.50
2019-03-19T06:32:59.726Z,0.30
2019-03-19T06:33:59.711Z,0.40
2019-03-19T06:35:06.134Z,0.40
2019-03-19T06:35:59.688Z,0.30
2019-03-19T06:36:59.679Z,0.20
2019-03-19T06:37:59.699Z,0.50
2019-03-19T06:38:59.666Z,0.30
2019-03-19T06:39:59.648Z,0.30
2019-03-19T06:40:59.629Z,0.20
2019-03-19T06:41:59.617Z,0.30
2019-03-19T06:42:59.616Z,0.30
2019-03-19T06:43:59.616Z,0.40
2019-03-19T06:44:59.610Z,0.60
2019-03-19T06:45:59.581Z,0.60
2019-03-19T06:46:59.569Z,0.90
2019-03-19T06:47:59.553Z,0.80
2019-03-19T06:48:59.542Z,0.70
2019-03-19T06:49:59.529Z,0.60
2019-03-19T06:50:59.528Z,0.70
2019-03-19T06:51:59.510Z,0.70
2019-03-19T06:52:59.492Z,0.60
2019-03-19T06:53:59.480Z,0.40
2019-03-19T06:54:59.471Z,0.50
2019-03-19T06:55:59.501Z,0.40
2019-03-19T06:56:59.448Z,0.50
2019-03-19T06:57:59.439Z,0.30
2019-03-19T06:58:59.431Z,0.40
2019-03-19T06:59:59.423Z,0.40
2019-03-19T07:00:59.403Z,0.40
2019-03-19T07:01:59.405Z,0.30
2019-03-19T07:02:59.395Z,0.30
2019-03-19T07:03:59.372Z,0.50
2019-03-19T07:04:59.358Z,0.30
2019-03-19T07:05:59.349Z,0.50
2019-03-19T07:07:06.184Z,0.30
2019-03-19T07:07:59.324Z,0.30
2019-03-19T07:08:59.308Z,0.40
2019-03-19T07:09:59.305Z,0.50
2019-03-19T07:10:59.293Z,0.50
2019-03-19T07:12:01.450Z,0.50
2019-03-19T07:12:59.273Z,0.40
2019-03-19T07:13:59.256Z,0.50
2019-03-19T07:14:59.257Z,0.40
2019-03-19T07:15:59.232Z,0.40
2019-03-19T07:16:59.221Z,0.40
2019-03-19T07:17:59.260Z,0.30
2019-03-19T07:18:59.195Z,0.40
2019-03-19T07:19:59.184Z,0.30
2019-03-19T07:20:59.176Z,0.50
2019-03-19T07:21:59.161Z,0.40
2019-03-19T07:22:59.152Z,0.30
2019-03-19T07:23:59.155Z,0.40
2019-03-19T07:24:59.125Z,0.40
2019-03-19T07:25:59.116Z,0.20
2019-03-19T07:26:59.101Z,0.40
2019-03-19T07:27:59.090Z,0.40
2019-03-19T07:28:59.081Z,0.20
2019-03-19T07:29:59.079Z,0.30
2019-03-19T07:30:59.064Z,0.20
2019-03-19T07:31:59.045Z,0.40
2019-03-19T07:32:59.038Z,0.30
2019-03-19T07:33:59.023Z,0.20
2019-03-19T07:34:59.036Z,0.30
2019-03-19T07:35:59.005Z,0.30
2019-03-19T07:36:58.996Z,0.30
2019-03-19T07:37:59.055Z,0.20
2019-03-19T07:39:05.428Z,0.20
2019-03-19T07:39:58.958Z,0.30
2019-03-19T07:40:58.961Z,0.30
2019-03-19T07:41:58.934Z,0.40
2019-03-19T07:42:58.917Z,0.40
2019-03-19T07:43:58.916Z,0.30
2019-03-19T07:44:58.901Z,0.40
2019-03-19T07:45:58.925Z,0.40
2019-03-19T07:46:58.873Z,0.40
2019-03-19T07:47:58.863Z,0.30
2019-03-19T07:48:58.854Z,0.50
2019-03-19T07:49:58.845Z,0.20
2019-03-19T07:50:58.825Z,0.30
2019-03-19T07:51:58.827Z,0.20
2019-03-19T07:52:58.809Z,0.20
2019-03-19T07:53:58.801Z,0.30
2019-03-19T07:54:58.786Z,0.30
2019-03-19T07:55:58.775Z,0.30
2019-03-19T07:56:58.773Z,0.30
2019-03-19T07:57:58.769Z,0.20
2019-03-19T07:58:58.740Z,0.30
2019-03-19T07:59:58.723Z,0.30
2019-03-19T08:00:58.712Z,0.30
2019-03-19T08:01:58.701Z,0.20
2019-03-19T08:02:58.688Z,0.40
2019-03-19T08:03:58.715Z,0.30
2019-03-19T08:04:58.665Z,0.30
2019-03-19T08:05:58.655Z,0.20
2019-03-19T08:06:58.648Z,0.40
2019-03-19T08:07:58.634Z,0.60
2019-03-19T08:08:58.621Z,0.20
2019-03-19T08:09:58.625Z,0.30
2019-03-19T08:11:04.688Z,0.30
2019-03-19T08:11:58.593Z,0.50
2019-03-19T08:12:58.584Z,0.30
2019-03-19T08:13:58.573Z,0.20
2019-03-19T08:14:58.562Z,0.30
2019-03-19T08:15:58.546Z,0.30
2019-03-19T08:16:58.531Z,0.20
2019-03-19T08:17:58.524Z,0.30
2019-03-19T08:18:58.506Z,0.20
2019-03-19T08:19:58.511Z,0.30
2019-03-19T08:20:58.485Z,0.30
2019-03-19T08:21:58.477Z,0.40
2019-03-19T08:22:58.493Z,0.20
2019-03-19T08:23:58.869Z,0.30
2019-03-19T08:24:58.480Z,0.30
2019-03-19T08:25:58.433Z,0.30
2019-03-19T08:26:58.414Z,0.20
2019-03-19T08:27:58.414Z,0.30
2019-03-19T08:28:58.391Z,0.20
2019-03-19T08:29:58.381Z,0.20
2019-03-19T08:30:58.411Z,0.40
2019-03-19T08:31:58.359Z,0.30
2019-03-19T08:32:58.346Z,0.30
2019-03-19T08:33:58.340Z,0.20
2019-03-19T08:34:58.327Z,0.40
2019-03-19T08:36:08.736Z,0.30
2019-03-19T08:36:59.307Z,0.30
2019-03-19T08:37:58.288Z,0.20
2019-03-19T08:38:58.283Z,0.30
2019-03-19T08:39:58.266Z,0.70
2019-03-19T08:40:58.259Z,0.30
2019-03-19T08:41:58.278Z,0.40
2019-03-19T08:43:04.636Z,0.30
2019-03-19T08:43:58.222Z,0.30
2019-03-19T08:44:58.210Z,0.40
2019-03-19T08:45:58.203Z,0.60
2019-03-19T08:46:58.194Z,0.60
2019-03-19T08:47:58.189Z,0.80
2019-03-19T08:48:58.170Z,0.50
2019-03-19T08:49:58.154Z,0.40
2019-03-19T08:50:58.148Z,0.50
2019-03-19T08:51:58.129Z,0.30
2019-03-19T08:52:58.164Z,0.30
2019-03-19T08:53:58.109Z,0.20
2019-03-19T08:54:58.096Z,0.30
2019-03-19T08:55:58.089Z,1.00
2019-03-19T08:56:58.071Z,0.30
2019-03-19T08:57:58.060Z,0.40
2019-03-19T08:59:05.541Z,0.40
2019-03-19T08:59:59.037Z,0.40
2019-03-19T09:00:58.033Z,0.50
2019-03-19T09:01:58.016Z,0.40
2019-03-19T09:02:58.011Z,0.40
2019-03-19T09:03:57.989Z,0.40
2019-03-19T09:04:58.004Z,0.40
2019-03-19T09:05:57.977Z,0.50
2019-03-19T09:06:57.957Z,0.40
2019-03-19T09:07:57.943Z,0.60
2019-03-19T09:08:57.933Z,0.50
2019-03-19T09:09:57.924Z,0.50
2019-03-19T09:10:57.925Z,0.50
2019-03-19T09:11:57.902Z,0.50
2019-03-19T09:12:57.891Z,0.30
2019-03-19T09:13:57.880Z,0.20
2019-03-19T09:15:03.957Z,0.40
2019-03-19T09:15:57.896Z,0.50
2019-03-19T09:16:57.842Z,0.30
2019-03-19T09:17:57.837Z,0.30
2019-03-19T09:18:57.820Z,0.50
2019-03-19T09:19:57.807Z,0.30
2019-03-19T09:20:57.800Z,0.40
2019-03-19T09:21:57.822Z,0.40
2019-03-19T09:22:57.776Z,0.40
2019-03-19T09:23:57.767Z,0.30
2019-03-19T09:24:57.754Z,0.40
2019-03-19T09:25:57.742Z,0.40
2019-03-19T09:26:57.729Z,0.40
2019-03-19T09:27:57.723Z,0.40
2019-03-19T09:28:57.700Z,0.50
2019-03-19T09:29:57.696Z,0.30
2019-03-19T09:30:57.681Z,0.40
2019-03-19T09:31:57.666Z,0.20
2019-03-19T09:32:57.694Z,0.30
2019-03-19T09:33:57.645Z,0.30
2019-03-19T09:34:57.632Z,0.40
2019-03-19T09:35:57.624Z,0.50
2019-03-19T09:36:57.902Z,0.30
2019-03-19T09:37:59.056Z,0.30
2019-03-19T09:38:57.628Z,0.30
2019-03-19T09:39:57.579Z,0.20
2019-03-19T09:40:57.563Z,0.40
2019-03-19T09:41:57.558Z,0.20
2019-03-19T09:42:57.541Z,0.40
2019-03-19T09:43:57.528Z,0.20
2019-03-19T09:44:58.713Z,0.40
2019-03-19T09:45:57.509Z,0.30
2019-03-19T09:47:03.585Z,0.30
2019-03-19T09:47:57.487Z,0.30
2019-03-19T09:48:57.475Z,0.30
2019-03-19T09:49:57.459Z,0.30
2019-03-19T09:50:57.485Z,0.30
2019-03-19T09:51:57.441Z,0.30
2019-03-19T09:52:57.427Z,0.30
2019-03-19T09:53:57.424Z,0.30
2019-03-19T09:54:57.401Z,0.30
2019-03-19T09:55:57.390Z,0.40
2019-03-19T09:56:57.426Z,0.30
2019-03-19T09:57:57.373Z,0.30
2019-03-19T09:58:57.359Z,0.10
2019-03-19T09:59:57.344Z,0.40
2019-03-19T10:00:57.332Z,0.30
2019-03-19T10:01:57.319Z,0.30
2019-03-19T10:02:57.314Z,0.10
2019-03-19T10:03:57.303Z,0.30
2019-03-19T10:04:57.352Z,0.30
2019-03-19T10:05:57.281Z,0.30
2019-03-19T10:07:05.718Z,0.40
2019-03-19T10:07:58.263Z,0.40
2019-03-19T10:08:57.243Z,0.20
2019-03-19T10:09:57.224Z,0.30
2019-03-19T10:10:57.219Z,0.20
2019-03-19T10:11:57.205Z,0.50
2019-03-19T10:12:57.239Z,0.30
2019-03-19T10:13:57.186Z,0.30
2019-03-19T10:14:57.177Z,0.50
2019-03-19T10:15:57.159Z,0.40
2019-03-19T10:16:57.145Z,0.40
2019-03-19T10:17:57.139Z,0.40
2019-03-19T10:19:03.775Z,0.40
2019-03-19T10:19:57.113Z,0.30
2019-03-19T10:20:57.100Z,0.30
2019-03-19T10:21:57.090Z,0.30
2019-03-19T10:22:57.083Z,0.30
2019-03-19T10:23:57.072Z,0.40
2019-03-19T10:24:57.065Z,0.40
2019-03-19T10:25:57.041Z,0.50
2019-03-19T10:26:57.032Z,0.30
2019-03-19T10:27:57.026Z,0.30
2019-03-19T10:28:57.006Z,0.40
2019-03-19T10:29:57.014Z,0.30
2019-03-19T10:30:56.985Z,0.30
2019-03-19T10:31:56.979Z,0.40
2019-03-19T10:32:56.960Z,0.40
2019-03-19T10:33:56.948Z,0.40
2019-03-19T10:34:56.940Z,0.50
2019-03-19T10:35:56.948Z,0.40
2019-03-19T10:36:56.918Z,0.60
2019-03-19T10:37:56.909Z,0.30
2019-03-19T10:38:56.898Z,0.60
2019-03-19T10:39:56.882Z,0.30
2019-03-19T10:40:56.875Z,0.20
2019-03-19T10:41:56.867Z,0.50
2019-03-19T10:42:56.848Z,0.40
2019-03-19T10:43:56.840Z,0.60
2019-03-19T10:44:56.827Z,0.20
2019-03-19T10:45:56.817Z,0.20
2019-03-19T10:46:56.840Z,0.30
2019-03-19T10:47:56.788Z,0.30
2019-03-19T10:48:56.779Z,0.20
2019-03-19T10:49:56.768Z,0.20
2019-03-19T10:51:02.844Z,0.40
2019-03-19T10:51:56.743Z,0.20
2019-03-19T10:52:56.814Z,0.30
2019-03-19T10:53:56.723Z,0.20
2019-03-19T10:54:56.719Z,0.20
2019-03-19T10:55:56.703Z,0.30
2019-03-19T10:56:56.686Z,0.40
2019-03-19T10:57:56.676Z,0.30
2019-03-19T10:58:56.681Z,0.30
2019-03-19T10:59:56.653Z,0.30
2019-03-19T11:00:56.645Z,0.30
2019-03-19T11:01:56.640Z,0.30
2019-03-19T11:02:56.627Z,0.30
2019-03-19T11:03:56.612Z,0.30
2019-03-19T11:04:56.601Z,0.40
2019-03-19T11:05:56.586Z,0.30
2019-03-19T11:06:56.569Z,0.30
2019-03-19T11:07:56.566Z,0.40
2019-03-19T11:08:56.547Z,0.40
2019-03-19T11:09:56.577Z,0.40
2019-03-19T11:10:56.532Z,0.40
2019-03-19T11:11:56.511Z,0.50
2019-03-19T11:12:56.500Z,0.40
2019-03-19T11:13:56.497Z,0.40
2019-03-19T11:14:56.483Z,0.50
2019-03-19T11:15:56.483Z,0.30
2019-03-19T11:16:56.458Z,0.40
2019-03-19T11:17:56.446Z,0.40
2019-03-19T11:18:56.432Z,0.40
2019-03-19T11:19:56.422Z,0.30
2019-03-19T11:20:56.414Z,0.50
2019-03-19T11:21:56.447Z,0.60
2019-03-19T11:23:02.492Z,0.50
2019-03-19T11:23:56.383Z,0.30
2019-03-19T11:24:56.370Z,0.40
2019-03-19T11:25:56.358Z,0.40
2019-03-19T11:26:56.343Z,0.40
2019-03-19T11:27:56.376Z,0.50
2019-03-19T11:28:56.329Z,0.40
2019-03-19T11:29:59.977Z,0.40
2019-03-19T11:30:56.304Z,0.50
2019-03-19T11:31:56.293Z,0.40
2019-03-19T11:32:56.275Z,0.30
2019-03-19T11:33:56.285Z,0.50
2019-03-19T11:34:56.261Z,0.50
2019-03-19T11:35:56.242Z,0.50
2019-03-19T11:36:57.994Z,0.40
2019-03-19T11:37:56.229Z,0.30
2019-03-19T11:38:56.212Z,0.50
2019-03-19T11:39:56.194Z,0.40
2019-03-19T11:40:56.187Z,0.40
2019-03-19T11:41:56.172Z,0.40
2019-03-19T11:42:56.165Z,0.40
2019-03-19T11:43:56.161Z,0.40
2019-03-19T11:44:56.151Z,0.40
2019-03-19T11:45:56.125Z,0.60
2019-03-19T11:46:56.115Z,0.60
2019-03-19T11:47:56.109Z,0.80
2019-03-19T11:48:56.097Z,0.90
2019-03-19T11:49:56.117Z,0.70
2019-03-19T11:50:56.082Z,0.80
2019-03-19T11:51:56.063Z,0.80
2019-03-19T11:52:56.057Z,1.00
2019-03-19T11:53:56.035Z,0.90
2019-03-19T11:55:02.306Z,0.70
2019-03-19T11:55:56.009Z,0.60
2019-03-19T11:56:56.001Z,0.70
2019-03-19T11:57:57.546Z,0.70
2019-03-19T11:58:55.975Z,0.60
2019-03-19T11:59:55.963Z,0.90
2019-03-19T12:00:55.991Z,0.60
2019-03-19T12:01:55.941Z,0.80
2019-03-19T12:02:55.935Z,0.70
2019-03-19T12:03:55.926Z,0.70
2019-03-19T12:04:55.912Z,0.50
2019-03-19T12:05:55.899Z,0.70
2019-03-19T12:06:55.931Z,0.70
2019-03-19T12:07:55.876Z,0.60
2019-03-19T12:08:55.863Z,0.50
2019-03-19T12:09:55.854Z,0.80
2019-03-19T12:10:55.838Z,0.50
2019-03-19T12:11:55.832Z,0.30
2019-03-19T12:12:55.838Z,0.50
2019-03-19T12:13:55.803Z,0.50
2019-03-19T12:14:55.801Z,0.50
2019-03-19T12:15:55.793Z,0.50
2019-03-19T12:16:55.771Z,0.50
2019-03-19T12:17:55.763Z,0.70
2019-03-19T12:18:55.761Z,0.60
2019-03-19T12:19:55.738Z,0.60
2019-03-19T12:20:55.732Z,0.50
2019-03-19T12:21:55.716Z,0.40
2019-03-19T12:22:55.744Z,0.40
2019-03-19T12:23:55.692Z,0.50
2019-03-19T12:24:55.681Z,0.40
2019-03-19T12:25:55.671Z,0.60
2019-03-19T12:27:01.752Z,0.50
2019-03-19T12:27:55.651Z,0.40
2019-03-19T12:28:55.672Z,0.70
2019-03-19T12:29:55.624Z,0.90
2019-03-19T12:30:55.613Z,0.40
2019-03-19T12:31:55.598Z,0.50
2019-03-19T12:32:55.589Z,0.70
2019-03-19T12:33:55.578Z,0.40
2019-03-19T12:34:55.584Z,0.50
2019-03-19T12:35:57.797Z,0.50
2019-03-19T12:36:55.542Z,0.50
2019-03-19T12:37:55.533Z,0.60
2019-03-19T12:38:55.519Z,0.50
2019-03-19T12:39:55.515Z,0.60
2019-03-19T12:40:55.513Z,0.50
2019-03-19T12:41:55.488Z,0.40
2019-03-19T12:42:55.475Z,0.50
2019-03-19T12:43:55.462Z,0.60
2019-03-19T12:44:55.450Z,0.50
2019-03-19T12:45:55.481Z,0.50
2019-03-19T12:46:55.429Z,0.20
2019-03-19T12:47:55.415Z,0.30
2019-03-19T12:48:55.409Z,0.40
2019-03-19T12:49:55.398Z,0.40
2019-03-19T12:50:55.383Z,0.40
2019-03-19T12:51:55.389Z,0.20
2019-03-19T12:52:55.364Z,0.40
2019-03-19T12:53:55.348Z,0.30
2019-03-19T12:54:55.340Z,0.30
2019-03-19T12:55:55.333Z,0.30
2019-03-19T12:56:55.321Z,0.30
2019-03-19T12:57:55.307Z,0.40
2019-03-19T12:59:01.390Z,0.30
2019-03-19T12:59:55.285Z,0.20
2019-03-19T13:00:55.271Z,0.30
2019-03-19T13:01:55.267Z,0.30
2019-03-19T13:02:55.256Z,0.20
2019-03-19T13:03:55.232Z,0.20
2019-03-19T13:04:55.221Z,0.30
2019-03-19T13:05:55.214Z,0.30
2019-03-19T13:06:55.200Z,0.40
2019-03-19T13:07:55.230Z,0.40
2019-03-19T13:08:55.177Z,0.20
2019-03-19T13:09:55.162Z,0.20
2019-03-19T13:10:55.151Z,0.20
2019-03-19T13:11:55.142Z,0.20
2019-03-19T13:12:55.131Z,0.10
2019-03-19T13:13:55.130Z,0.10
2019-03-19T13:14:55.121Z,0.30
2019-03-19T13:15:55.094Z,0.20
2019-03-19T13:16:55.082Z,0.30
2019-03-19T13:17:55.071Z,0.20